createdAt,value
2018-09-05T00:03:45.160Z,7.1
2018-09-05T00:13:56.147Z,8.1
2018-09-05T00:24:10.193Z,6.2
2018-09-05T00:34:14.857Z,6.4
2018-09-05T00:44:26.742Z,8.1
2018-09-05T00:54:31.916Z,6.6
2018-09-05T01:04:36.418Z,5.6
2018-09-05T01:14:38.612Z,5.7
2018-09-05T01:24:38.758Z,5.6
2018-09-05T01:34:39.022Z,5.5
2018-09-05T01:44:38.741Z,7.5
2018-09-05T01:54:38.421Z,7
2018-09-05T02:04:38.167Z,6.6
2018-09-05T02:14:37.940Z,4.8
2018-09-05T02:24:37.594Z,5.5
2018-09-05T02:34:37.284Z,8.9
2018-09-05T02:44:36.941Z,6.2
2018-09-05T02:54:36.678Z,5.7
2018-09-05T03:04:36.388Z,4.9
2018-09-05T03:14:43.653Z,5.5
2018-09-05T03:25:02.036Z,4.9
2018-09-05T03:35:24.305Z,5.8
2018-09-05T03:46:16.156Z,5.6
2018-09-05T03:56:35.848Z,5.4
2018-09-05T04:07:14.027Z,5.3
2018-09-05T04:17:30.417Z,4.7
2018-09-05T04:27:48.396Z,5.9
2018-09-05T04:38:17.085Z,8.3
2018-09-05T04:49:00.817Z,4.3
2018-09-05T04:59:46.408Z,4.5
2018-09-05T05:10:12.084Z,7.1
2018-09-05T05:21:02.810Z,5.2
2018-09-05T05:31:55.821Z,5.4
2018-09-05T05:42:25.169Z,5.7
2018-09-05T05:52:59.224Z,5
2018-09-05T06:03:40.033Z,3.2
2018-09-05T06:15:01.226Z,4.1
2018-09-05T06:25:49.440Z,4
2018-09-05T06:36:24.334Z,4.2
2018-09-05T06:46:51.792Z,4.2
2018-09-05T06:57:52.228Z,5
2018-09-05T07:08:35.954Z,3.7
2018-09-05T07:18:58.400Z,3.5
2018-09-05T07:29:16.163Z,2.9
2018-09-05T07:39:49.525Z,4
2018-09-05T07:50:02.598Z,4.1
2018-09-05T08:00:24.501Z,3.8
2018-09-05T08:10:42.695Z,3
2018-09-05T08:20:55.029Z,4.8
2018-09-05T08:31:09.549Z,3.9
2018-09-05T08:41:21.629Z,3.6
2018-09-05T08:51:39.079Z,4.4
2018-09-05T09:01:58.948Z,4.6
2018-09-05T09:12:04.639Z,4.1
2018-09-05T09:22:13.441Z,7.7
2018-09-05T09:32:28.215Z,6.7
2018-09-05T09:42:47.414Z,4.5
2018-09-05T09:52:55.890Z,3.6
2018-09-05T10:03:04.701Z,4.2
2018-09-05T10:13:21.937Z,3.9
2018-09-05T10:23:40.583Z,4.3
2018-09-05T10:33:49.873Z,4.2
2018-09-05T10:43:53.919Z,4.7
2018-09-05T10:54:04.789Z,4.9
2018-09-05T11:04:15.567Z,5.6
2018-09-05T11:14:27.897Z,4.1
2018-09-05T11:24:45.685Z,3.8
2018-09-05T11:34:51.804Z,3.8
2018-09-05T11:44:52.358Z,8.8
2018-09-05T11:54:58.315Z,7
2018-09-05T12:05:00.149Z,4.5
2018-09-05T12:15:02.136Z,6
2018-09-05T12:25:03.402Z,5.5
2018-09-05T12:35:05.198Z,4.6
2018-09-05T12:45:13.373Z,5.1
2018-09-05T12:55:19.348Z,4.8
2018-09-05T13:05:23.719Z,6.2
2018-09-05T13:15:39.270Z,6.8
2018-09-05T13:25:55.980Z,6.4
2018-09-05T13:36:11.459Z,6.3
2018-09-05T13:46:20.738Z,7.1
2018-09-05T13:56:30.139Z,7.4
2018-09-05T14:06:53.140Z,7.1
2018-09-05T14:17:08.928Z,7.9
2018-09-05T14:27:22.748Z,8.5
2018-09-05T14:37:31.195Z,8.9
2018-09-05T14:47:37.320Z,11
2018-09-05T14:57:41.718Z,9.3
2018-09-05T15:07:45.793Z,11
2018-09-05T15:17:57.187Z,10.4
2018-09-05T15:28:03.310Z,9.6
2018-09-05T15:38:10.815Z,8.9
2018-09-05T15:48:28.133Z,11.5
2018-09-05T15:58:37.855Z,12.2
2018-09-05T16:08:51.405Z,12
2018-09-05T16:19:03.509Z,10.4
2018-09-05T16:29:10.230Z,11.6
2018-09-05T16:39:44.832Z,14.1
2018-09-05T16:50:04.361Z,12.2
2018-09-05T17:00:23.832Z,11.2
2018-09-05T17:11:00.882Z,12.8
2018-09-05T17:21:24.654Z,11.7
2018-09-05T17:32:04.598Z,9.9
2018-09-05T17:42:21.565Z,11
2018-09-05T17:52:44.325Z,13.3
2018-09-05T18:03:28.446Z,12.7
2018-09-05T18:13:43.120Z,14.3
2018-09-05T18:24:01.110Z,13.5
2018-09-05T18:34:21.903Z,12.4
2018-09-05T18:44:43.590Z,12.2
2018-09-05T18:55:19.899Z,14.8
2018-09-05T19:05:49.161Z,16.8
2018-09-05T19:15:56.029Z,15.3
2018-09-05T19:25:56.943Z,15.8
2018-09-05T19:35:57.775Z,16.2
2018-09-05T19:45:58.501Z,17.2
2018-09-05T19:55:58.656Z,15.6
2018-09-05T20:06:02.126Z,17.7
2018-09-05T20:16:03.294Z,13.1
2018-09-05T20:26:04.782Z,13.1
2018-09-05T20:36:08.315Z,13.5
2018-09-05T20:46:09.223Z,11.4
2018-09-05T20:56:13.170Z,12
2018-09-05T21:06:29.744Z,12.5
2018-09-05T21:16:40.373Z,12.9
2018-09-05T21:26:48.520Z,11.9
2018-09-05T21:36:59.338Z,11.3
2018-09-05T21:47:13.505Z,12.6
2018-09-05T21:57:44.860Z,12.9
2018-09-05T22:07:54.204Z,9.4
2018-09-05T22:18:02.796Z,12.4
2018-09-05T22:28:13.302Z,13.1
2018-09-05T22:38:17.371Z,10.6
2018-09-05T22:48:39.468Z,13.1
2018-09-05T22:58:55.809Z,13.4
2018-09-05T23:09:11.926Z,11.1
2018-09-05T23:19:19.908Z,15.3
2018-09-05T23:29:27.866Z,11.8
2018-09-05T23:39:37.171Z,12.3
2018-09-05T23:49:46.046Z,13.1
2018-09-05T23:59:46.080Z,13.1
